createdAt,value
2023-04-19T00:01:28.523Z,5.95
2023-04-19T00:04:31.426Z,5.80
2023-04-19T00:07:34.272Z,6.87
2023-04-19T00:10:37.652Z,6.65
2023-04-19T00:13:40.188Z,7.35
2023-04-19T00:16:42.743Z,7.38
2023-04-19T00:19:45.155Z,7.63
2023-04-19T00:22:47.705Z,8.23
2023-04-19T00:25:50.846Z,8.30
2023-04-19T00:28:53.344Z,9.00
2023-04-19T00:31:55.762Z,8.27
2023-04-19T00:34:59.472Z,8.60
2023-04-19T00:38:01.888Z,9.85
2023-04-19T00:41:04.217Z,9.73
2023-04-19T00:44:06.612Z,8.68
2023-04-19T00:47:09.117Z,9.43
2023-04-19T00:50:12.059Z,7.60
2023-04-19T00:53:14.568Z,7.28
2023-04-19T00:56:17.600Z,8.05
2023-04-19T00:59:20.466Z,5.97
2023-04-19T01:02:23.387Z,7.20
2023-04-19T01:05:28.133Z,8.50
2023-04-19T01:08:30.821Z,7.20
2023-04-19T01:11:33.223Z,6.88
2023-04-19T01:14:35.666Z,8.13
2023-04-19T01:17:38.926Z,7.25
2023-04-19T01:20:41.631Z,7.75
2023-04-19T01:23:43.964Z,7.57
2023-04-19T01:26:46.813Z,8.10
2023-04-19T01:29:49.129Z,7.05
2023-04-19T01:32:52.999Z,8.02
2023-04-19T01:35:56.271Z,7.72
2023-04-19T01:38:58.715Z,7.90
2023-04-19T01:42:01.624Z,8.07
2023-04-19T01:45:05.889Z,7.57
2023-04-19T01:48:08.384Z,8.48
2023-04-19T01:51:11.117Z,8.35
2023-04-19T01:54:13.913Z,8.95
2023-04-19T01:57:16.997Z,6.78
2023-04-19T02:00:19.450Z,9.02
2023-04-19T02:03:23.273Z,9.27
2023-04-19T02:06:27.092Z,9.13
2023-04-19T02:09:29.821Z,7.70
2023-04-19T02:12:33.812Z,8.75
2023-04-19T02:15:38.299Z,8.88
2023-04-19T02:18:41.678Z,7.85
2023-04-19T02:21:44.121Z,8.13
2023-04-19T02:24:51.395Z,8.95
2023-04-19T02:30:57.032Z,7.55
2023-04-19T02:33:59.628Z,8.18
2023-04-19T02:37:03.609Z,8.20
2023-04-19T02:40:06.690Z,7.85
2023-04-19T02:43:09.073Z,8.23
2023-04-19T02:46:11.544Z,7.82
2023-04-19T02:49:14.010Z,7.50
2023-04-19T02:52:16.457Z,7.43
2023-04-19T02:55:19.191Z,8.48
2023-04-19T02:58:24.877Z,8.95
2023-04-19T03:01:40.515Z,8.23
2023-04-19T03:04:43.762Z,5.75
2023-04-19T03:07:47.100Z,5.95
2023-04-19T03:10:49.954Z,7.47
2023-04-19T03:13:52.422Z,7.72
2023-04-19T03:16:54.936Z,8.07
2023-04-19T03:19:57.758Z,8.23
2023-04-19T03:23:00.458Z,8.68
2023-04-19T03:26:04.115Z,9.45
2023-04-19T03:29:14.709Z,11.20
2023-04-19T03:32:28.193Z,9.35
2023-04-19T03:35:32.362Z,12.60
2023-04-19T03:38:44.582Z,12.60
2023-04-19T03:41:52.277Z,11.52
2023-04-19T03:45:16.229Z,10.77
2023-04-19T03:48:22.544Z,10.52
2023-04-19T03:51:26.924Z,9.57
2023-04-19T03:54:29.458Z,8.38
2023-04-19T03:57:33.148Z,8.90
2023-04-19T04:00:39.682Z,9.38
2023-04-19T04:03:42.541Z,8.35
2023-04-19T04:06:45.770Z,7.82
2023-04-19T04:09:51.287Z,8.07
2023-04-19T04:12:54.005Z,7.18
2023-04-19T04:16:04.415Z,7.20
2023-04-19T04:19:07.951Z,6.13
2023-04-19T04:22:13.808Z,7.50
2023-04-19T04:25:18.925Z,6.70
2023-04-19T04:28:23.741Z,6.80
2023-04-19T04:31:26.658Z,6.05
2023-04-19T04:34:29.261Z,7.47
2023-04-19T04:37:40.325Z,7.40
2023-04-19T04:40:42.766Z,7.03
2023-04-19T04:43:58.599Z,7.28
2023-04-19T04:47:14.270Z,7.40
2023-04-19T04:50:23.332Z,7.00
2023-04-19T04:53:28.680Z,6.82
2023-04-19T04:56:31.566Z,6.50
2023-04-19T04:59:34.787Z,6.80
2023-04-19T05:05:42.282Z,6.28
2023-04-19T05:08:45.904Z,7.25
2023-04-19T05:11:57.338Z,5.95
2023-04-19T05:15:00.591Z,6.00
2023-04-19T05:18:03.587Z,6.70
2023-04-19T05:21:07.046Z,7.10
2023-04-19T05:24:10.310Z,8.68
2023-04-19T05:27:13.220Z,5.63
2023-04-19T05:30:15.926Z,7.68
2023-04-19T05:33:20.482Z,7.35
2023-04-19T05:36:24.618Z,8.18
2023-04-19T05:39:28.659Z,8.27
2023-04-19T05:42:31.342Z,7.70
2023-04-19T05:45:33.931Z,8.00
2023-04-19T05:48:37.283Z,8.13
2023-04-19T05:52:02.902Z,7.47
2023-04-19T05:55:18.299Z,8.68
2023-04-19T05:58:21.797Z,6.32
2023-04-19T06:01:24.857Z,7.97
2023-04-19T06:04:28.197Z,6.35
2023-04-19T06:07:34.137Z,5.38
2023-04-19T06:10:53.411Z,10.05
2023-04-19T06:13:57.911Z,8.55
2023-04-19T06:17:00.404Z,8.75
2023-04-19T06:20:06.144Z,9.25
2023-04-19T06:23:08.881Z,8.43
2023-04-19T06:26:12.048Z,9.57
2023-04-19T06:29:14.757Z,9.97
2023-04-19T06:32:17.351Z,9.90
2023-04-19T06:35:19.980Z,9.63
2023-04-19T06:38:22.533Z,9.63
2023-04-19T06:41:24.990Z,8.65
2023-04-19T06:44:27.415Z,10.05
2023-04-19T06:47:30.196Z,9.98
2023-04-19T06:50:32.689Z,8.80
2023-04-19T06:53:36.052Z,9.88
2023-04-19T06:56:48.440Z,7.37
2023-04-19T06:59:50.971Z,10.88
2023-04-19T07:02:53.474Z,9.93
2023-04-19T07:05:58.936Z,9.35
2023-04-19T07:09:01.904Z,9.88
2023-04-19T07:12:04.434Z,10.02
2023-04-19T07:15:07.878Z,9.25
2023-04-19T07:18:16.245Z,6.88
2023-04-19T07:21:18.802Z,9.35
2023-04-19T07:24:21.303Z,8.13
2023-04-19T07:27:23.678Z,9.23
2023-04-19T07:30:26.189Z,9.95
2023-04-19T07:33:28.829Z,8.98
2023-04-19T07:36:31.981Z,8.68
2023-04-19T07:39:34.547Z,6.63
2023-04-19T07:42:37.055Z,9.13
2023-04-19T07:45:39.493Z,8.68
2023-04-19T07:48:41.814Z,9.63
2023-04-19T07:51:44.090Z,9.13
2023-04-19T07:54:47.251Z,10.98
2023-04-19T07:57:50.449Z,8.27
2023-04-19T08:00:52.866Z,8.67
2023-04-19T08:03:55.516Z,10.45
2023-04-19T08:06:58.159Z,9.40
2023-04-19T08:10:00.536Z,9.75
2023-04-19T08:13:06.267Z,9.27
2023-04-19T08:19:14.451Z,9.85
2023-04-19T08:22:18.195Z,10.20
2023-04-19T08:25:21.472Z,10.00
2023-04-19T08:28:24.147Z,8.13
2023-04-19T08:31:26.791Z,8.82
2023-04-19T08:34:29.556Z,9.57
2023-04-19T08:37:32.001Z,9.75
2023-04-19T08:40:34.672Z,8.93
2023-04-19T08:43:38.421Z,9.82
2023-04-19T08:46:42.969Z,8.68
2023-04-19T08:49:47.592Z,8.77
2023-04-19T08:52:58.794Z,8.27
2023-04-19T08:59:19.758Z,7.28
2023-04-19T09:02:23.098Z,5.95
2023-04-19T09:05:26.045Z,7.13
2023-04-19T09:08:30.687Z,6.82
2023-04-19T09:11:39.065Z,7.50
2023-04-19T09:14:57.817Z,7.43
2023-04-19T09:18:08.226Z,7.82
2023-04-19T09:21:10.713Z,6.95
2023-04-19T09:24:13.277Z,7.45
2023-04-19T09:27:25.888Z,8.13
2023-04-19T09:30:33.790Z,7.32
2023-04-19T09:33:40.562Z,8.65
2023-04-19T09:36:43.118Z,8.45
2023-04-19T09:39:45.651Z,6.55
2023-04-19T09:45:53.287Z,7.70
2023-04-19T09:48:56.272Z,6.55
2023-04-19T09:51:59.579Z,4.65
2023-04-19T09:55:11.399Z,5.88
2023-04-19T09:58:29.428Z,6.25
2023-04-19T10:01:43.855Z,5.72
2023-04-19T10:05:03.180Z,6.85
2023-04-19T10:08:10.868Z,5.75
2023-04-19T10:11:13.888Z,4.97
2023-04-19T10:14:20.727Z,5.45
2023-04-19T10:17:24.720Z,4.78
2023-04-19T10:20:43.393Z,6.13
2023-04-19T10:23:45.951Z,6.70
2023-04-19T10:27:08.935Z,4.10
2023-04-19T10:30:21.536Z,5.05
2023-04-19T10:33:28.593Z,6.00
2023-04-19T10:36:31.163Z,5.68
2023-04-19T10:39:44.199Z,5.78
2023-04-19T10:43:11.313Z,6.05
2023-04-19T10:46:22.567Z,6.65
2023-04-19T10:49:25.110Z,6.32
2023-04-19T10:52:30.635Z,7.20
2023-04-19T10:55:34.590Z,5.63
2023-04-19T10:59:21.587Z,5.80
2023-04-19T11:02:25.076Z,5.85
2023-04-19T11:05:28.040Z,6.10
2023-04-19T11:08:30.560Z,6.70
2023-04-19T11:11:36.354Z,6.30
2023-04-19T11:14:49.349Z,6.43
2023-04-19T11:18:08.864Z,6.88
2023-04-19T11:21:15.463Z,7.60
2023-04-19T11:24:21.159Z,7.25
2023-04-19T11:27:23.544Z,8.82
2023-04-19T11:30:32.117Z,14.77
2023-04-19T11:33:38.044Z,46.30
2023-04-19T11:36:51.371Z,8.88
2023-04-19T11:39:53.808Z,8.75
2023-04-19T11:43:00.281Z,8.30
2023-04-19T11:46:13.487Z,9.80
2023-04-19T11:49:29.676Z,8.20
2023-04-19T11:52:36.107Z,8.07
2023-04-19T11:55:38.544Z,7.65
2023-04-19T11:58:51.576Z,7.78
2023-04-19T12:01:54.051Z,7.72
2023-04-19T12:04:56.651Z,8.13
2023-04-19T12:08:08.228Z,8.20
2023-04-19T12:11:10.602Z,6.95
2023-04-19T12:14:15.110Z,7.85
2023-04-19T12:17:17.754Z,6.93
2023-04-19T12:20:29.995Z,7.93
2023-04-19T12:23:32.359Z,7.65
2023-04-19T12:26:34.834Z,12.20
2023-04-19T12:29:37.339Z,10.23
2023-04-19T12:32:39.750Z,8.15
2023-04-19T12:35:43.129Z,14.82
2023-04-19T12:38:45.706Z,8.50
2023-04-19T12:41:51.237Z,8.38
2023-04-19T12:44:53.553Z,11.52
2023-04-19T12:47:56.296Z,9.93
2023-04-19T12:50:58.716Z,6.25
2023-04-19T12:54:02.547Z,6.97
2023-04-19T12:57:04.891Z,7.00
2023-04-19T13:00:08.869Z,7.72
2023-04-19T13:03:12.696Z,7.35
2023-04-19T13:06:16.946Z,7.55
2023-04-19T13:09:19.376Z,8.93
2023-04-19T13:12:21.756Z,7.00
2023-04-19T13:15:24.203Z,8.52
2023-04-19T13:18:26.602Z,10.57
2023-04-19T13:21:29.459Z,7.38
2023-04-19T13:24:31.811Z,8.00
2023-04-19T13:27:34.315Z,13.00
2023-04-19T13:30:36.854Z,9.65
2023-04-19T13:33:39.321Z,8.75
2023-04-19T13:36:41.668Z,12.45
2023-04-19T13:39:44.375Z,12.23
2023-04-19T13:42:46.730Z,9.98
2023-04-19T13:45:49.031Z,11.70
2023-04-19T13:48:51.448Z,10.82
2023-04-19T13:51:53.865Z,11.75
2023-04-19T13:54:56.422Z,9.10
2023-04-19T13:57:58.701Z,14.55
2023-04-19T14:01:01.167Z,10.82
2023-04-19T14:04:04.089Z,14.35
2023-04-19T14:07:07.402Z,15.30
2023-04-19T14:10:10.808Z,20.45
2023-04-19T14:13:13.279Z,15.07
2023-04-19T14:16:15.816Z,20.60
2023-04-19T14:19:18.197Z,15.95
2023-04-19T14:22:20.882Z,19.67
2023-04-19T14:25:23.357Z,11.90
2023-04-19T14:28:25.677Z,11.20
2023-04-19T14:31:28.106Z,10.90
2023-04-19T14:34:31.219Z,10.52
2023-04-19T14:37:33.636Z,10.13
2023-04-19T14:40:36.048Z,11.52
2023-04-19T14:43:38.590Z,11.27
2023-04-19T14:46:41.031Z,10.70
2023-04-19T14:49:43.327Z,11.95
2023-04-19T14:52:45.891Z,10.35
2023-04-19T14:55:48.242Z,10.68
2023-04-19T14:58:50.786Z,10.75
2023-04-19T15:01:53.604Z,11.95
2023-04-19T15:04:56.644Z,12.65
2023-04-19T15:07:59.302Z,10.90
2023-04-19T15:11:01.834Z,11.75
2023-04-19T15:14:04.254Z,12.15
2023-04-19T15:17:06.740Z,16.77
2023-04-19T15:20:09.737Z,13.32
2023-04-19T15:23:12.153Z,11.00
2023-04-19T15:26:14.734Z,13.00
2023-04-19T15:29:17.892Z,13.70
2023-04-19T15:32:20.665Z,15.77
2023-04-19T15:35:22.989Z,14.00
2023-04-19T15:38:27.598Z,14.88
2023-04-19T15:41:29.950Z,16.35
2023-04-19T15:44:32.436Z,14.55
2023-04-19T15:47:35.003Z,17.13
2023-04-19T15:50:38.035Z,17.98
2023-04-19T15:53:40.691Z,17.27
2023-04-19T15:56:43.158Z,18.88
2023-04-19T15:59:45.539Z,18.35
2023-04-19T16:02:48.526Z,18.95
2023-04-19T16:05:51.809Z,15.85
2023-04-19T16:08:54.126Z,20.15
2023-04-19T16:11:56.571Z,18.60
2023-04-19T16:14:58.972Z,18.75
2023-04-19T16:18:01.438Z,18.30
2023-04-19T16:21:04.250Z,18.73
2023-04-19T16:24:07.271Z,19.33
2023-04-19T16:27:09.658Z,18.23
2023-04-19T16:30:13.247Z,19.23
2023-04-19T16:33:16.014Z,12.20
2023-04-19T16:36:18.370Z,15.82
2023-04-19T16:39:20.772Z,16.83
2023-04-19T16:42:23.265Z,18.85
2023-04-19T16:45:26.078Z,17.10
2023-04-19T16:48:28.381Z,15.07
2023-04-19T16:51:30.750Z,15.68
2023-04-19T16:54:33.148Z,16.42
2023-04-19T16:57:36.801Z,16.60
2023-04-19T17:00:39.719Z,15.60
2023-04-19T17:03:42.659Z,13.85
2023-04-19T17:06:45.226Z,15.70
2023-04-19T17:09:47.639Z,16.23
2023-04-19T17:12:50.344Z,17.75
2023-04-19T17:15:53.157Z,18.60
2023-04-19T17:18:56.662Z,17.05
2023-04-19T17:22:05.130Z,16.42
2023-04-19T17:25:08.192Z,16.77
2023-04-19T17:28:10.738Z,16.38
2023-04-19T17:31:13.286Z,15.75
2023-04-19T17:34:15.921Z,16.23
2023-04-19T17:37:18.272Z,15.90
2023-04-19T17:40:20.884Z,16.00
2023-04-19T17:43:24.773Z,19.02
2023-04-19T17:46:27.318Z,16.58
2023-04-19T17:49:30.020Z,17.75
2023-04-19T17:52:32.477Z,21.25
2023-04-19T17:55:35.160Z,19.60
2023-04-19T17:58:37.681Z,20.42
2023-04-19T18:01:41.095Z,18.27
2023-04-19T18:04:45.558Z,12.77
2023-04-19T18:07:48.181Z,20.52
2023-04-19T18:10:51.302Z,19.85
2023-04-19T18:13:54.029Z,21.50
2023-04-19T18:16:56.408Z,38.35
2023-04-19T18:19:58.805Z,39.90
2023-04-19T18:23:01.992Z,29.08
2023-04-19T18:26:04.704Z,25.17
2023-04-19T18:29:07.281Z,26.20
2023-04-19T18:32:10.112Z,27.27
2023-04-19T18:35:12.771Z,22.00
2023-04-19T18:38:15.452Z,24.67
2023-04-19T18:41:17.771Z,18.27
2023-04-19T18:44:44.058Z,18.50
2023-04-19T18:47:42.730Z,20.60
2023-04-19T18:50:45.318Z,22.13
2023-04-19T18:53:49.282Z,21.77
2023-04-19T18:59:58.427Z,25.48
2023-04-19T19:03:02.902Z,24.75
2023-04-19T19:06:06.959Z,19.75
2023-04-19T19:09:09.667Z,15.90
2023-04-19T19:12:12.056Z,22.05
2023-04-19T19:15:14.955Z,23.35
2023-04-19T19:18:17.562Z,29.77
2023-04-19T19:21:20.138Z,31.55
2023-04-19T19:24:22.598Z,22.33
2023-04-19T19:27:25.447Z,25.38
2023-04-19T19:30:29.651Z,22.88
2023-04-19T19:33:32.371Z,24.00
2023-04-19T19:36:35.476Z,21.33
2023-04-19T19:39:37.793Z,19.70
2023-04-19T19:42:40.703Z,21.83
2023-04-19T19:45:43.266Z,23.33
2023-04-19T19:48:50.836Z,24.05
2023-04-19T19:51:58.940Z,17.80
2023-04-19T19:55:01.952Z,16.35
2023-04-19T20:01:10.364Z,17.80
2023-04-19T20:04:12.935Z,17.48
2023-04-19T20:10:20.781Z,17.60
2023-04-19T20:13:23.321Z,19.27
2023-04-19T20:16:25.943Z,20.17
2023-04-19T20:19:28.566Z,19.20
2023-04-19T20:22:30.944Z,16.27
2023-04-19T20:25:33.334Z,18.70
2023-04-19T20:28:35.790Z,17.92
2023-04-19T20:31:38.207Z,20.48
2023-04-19T20:34:40.729Z,21.95
2023-04-19T20:37:44.592Z,23.65
2023-04-19T20:40:47.226Z,20.38
2023-04-19T20:43:49.627Z,18.60
2023-04-19T20:46:52.250Z,18.90
2023-04-19T20:49:54.722Z,17.15
2023-04-19T20:52:58.255Z,19.38
2023-04-19T20:56:02.865Z,21.58
2023-04-19T20:59:06.472Z,21.98
2023-04-19T21:02:09.308Z,30.42
2023-04-19T21:05:12.071Z,33.15
2023-04-19T21:08:16.229Z,40.70
2023-04-19T21:11:18.697Z,31.23
2023-04-19T21:14:21.116Z,24.73
2023-04-19T21:17:23.457Z,33.67
2023-04-19T21:20:25.883Z,34.50
2023-04-19T21:23:28.328Z,29.23
2023-04-19T21:26:30.942Z,27.75
2023-04-19T21:29:33.385Z,27.63
2023-04-19T21:32:35.804Z,23.40
2023-04-19T21:35:38.320Z,24.80
2023-04-19T21:38:40.803Z,23.48
2023-04-19T21:41:43.166Z,25.63
2023-04-19T21:44:46.523Z,28.10
2023-04-19T21:47:48.976Z,19.33
2023-04-19T21:50:51.346Z,26.35
2023-04-19T21:53:53.653Z,24.92
2023-04-19T21:56:56.061Z,22.90
2023-04-19T21:59:58.483Z,23.23
2023-04-19T22:03:01.384Z,23.33
2023-04-19T22:06:04.245Z,24.90
2023-04-19T22:09:06.898Z,25.67
2023-04-19T22:12:10.702Z,23.20
2023-04-19T22:15:13.012Z,23.70
2023-04-19T22:18:15.611Z,25.17
2023-04-19T22:21:17.976Z,25.35
2023-04-19T22:24:21.908Z,25.00
2023-04-19T22:27:24.838Z,24.80
2023-04-19T22:30:27.354Z,23.98
2023-04-19T22:33:29.738Z,22.88
2023-04-19T22:36:32.090Z,21.42
2023-04-19T22:39:34.547Z,21.30
2023-04-19T22:42:37.308Z,24.65
2023-04-19T22:45:39.646Z,22.23
2023-04-19T22:48:42.756Z,23.83
2023-04-19T22:51:45.281Z,21.58
2023-04-19T22:54:47.662Z,23.55
2023-04-19T22:57:50.074Z,21.27
2023-04-19T23:00:52.668Z,20.67
2023-04-19T23:03:55.300Z,18.98
2023-04-19T23:06:57.822Z,20.75
2023-04-19T23:10:01.149Z,20.58
2023-04-19T23:13:03.493Z,18.00
2023-04-19T23:16:06.098Z,25.35
2023-04-19T23:19:09.687Z,22.23
2023-04-19T23:22:12.122Z,23.27
2023-04-19T23:25:14.512Z,23.38
2023-04-19T23:28:16.968Z,21.38
2023-04-19T23:31:19.391Z,22.60
2023-04-19T23:34:21.875Z,23.67
2023-04-19T23:37:24.278Z,22.25
2023-04-19T23:40:26.685Z,22.38
2023-04-19T23:43:29.177Z,22.92
2023-04-19T23:46:31.647Z,22.17
2023-04-19T23:49:33.985Z,21.88
2023-04-19T23:52:36.556Z,22.80
2023-04-19T23:55:38.998Z,21.48
2023-04-19T23:58:41.406Z,21.95
